• Join FlightAware (Why Join?)
  • Login
  • US Flag 
06:34AM EDT


 

Airport Tracker/Info


-or-


 

Live Flight TrackerFlight Track Log ✈ N75AW ✈ 21-Nov-2013 ✈ KAPF - MWCB / CYB

Flight Track Log - Related Links

Times and Time Zones

All times are in EST time to prevent confusion due to time zone crossing. See the N75AW flight status page for this flight to view local times or setup timezone preferences in your user account.

Time Position Orientation Groundspeed Altitude Reporting Facility
EST Latitude Longitude Course Direction KTS MPH feet Rate Location/Type
08:51AM 25.9633 -81.6767 155° Southeast 213 245 4,800  Level Miami Center
08:52AM 25.9136 -81.6633 166° South 196 226 6,500 1,560 Climbing Miami Center
08:53AM 25.8622 -81.6450 162° South 196 226 8,000 1,500 Climbing Miami Center
08:54AM 25.7633 -81.6561 156° South  Level Estimated
08:54AM 25.8106 -81.6269 163° South 196 226 9,500  Level Miami Center
08:55AM 25.7023 -81.6244 155° Southeast  Level FlightAware Approximate
08:55AM 25.7589 -81.6064 160° South 196 226 10,900  Level Miami Center
08:56AM 25.7011 -81.5881 164° South 202 232 12,600 1,500 Climbing Miami Center
08:57AM 25.6475 -81.5650 159° South 202 232 13,900 1,320 Climbing Miami Center
08:58AM 25.5939 -81.5469 163° South 202 232 15,300 1,320 Climbing Miami Center
08:59AM 25.5383 -81.5239 159° South 202 232 16,600 1,260 Climbing Miami Center
09:00AM 25.4803 -81.5033 162° South 208 239 17,900 1,200 Climbing Miami Center
09:01AM 25.4269 -81.4736 153° Southeast 208 239 19,000 1,200 Climbing Miami Center
09:02AM 25.3756 -81.4464 154° Southeast 208 239 20,300 1,200 Climbing Miami Center
09:03AM 25.3244 -81.4192 154° Southeast 208 239 21,500 1,080 Climbing Miami Center
09:04AM 25.2731 -81.3922 155° Southeast 208 239 22,500 900 Climbing Miami Center
09:05AM 25.2217 -81.3650 154° Southeast 213 245 23,400 840 Climbing Miami Center
09:06AM 25.1661 -81.3353 154° Southeast 213 245 24,200 780 Climbing Miami Center
09:07AM 25.1128 -81.3058 153° Southeast 213 245 25,000 420 Climbing Miami Center
09:08AM 25.0572 -81.2764 154° Southeast 213 245 25,100  Climbing Miami Center
09:09AM 24.9914 -81.2419 155° Southeast 233 268 25,100  Level Miami Center
09:10AM 24.9256 -81.2075 155° Southeast 255 293 25,100  Level Miami Center
09:11AM 24.8531 -81.1911 168° South 263 303 25,100  Level Miami Center
09:12AM 24.7794 -81.2000 186° South 263 303 25,100  Level Miami Center
09:13AM 24.7042 -81.2111 188° South 268 308 25,100  Level Miami Center
09:14AM 24.6306 -81.2244 189° South 273 314 25,100  Level Miami Center
09:15AM 24.5572 -81.2333 186° South 278 320 25,100  Level Miami Center
09:16AM 24.4797 -81.2444 187° South 278 320 25,100  Level Miami Center
09:17AM 24.4042 -81.2553 187° South 278 320 25,100  Level Miami Center
09:18AM 24.3286 -81.2664 188° South 278 320 25,100  Level Miami Center
09:19AM 24.2553 -81.2775 188° South 278 320 25,100  Level Miami Center
09:20AM 24.1778 -81.2839 184° South 278 320 25,100  Level Miami Center
09:21AM 24.1044 -81.2903 185° South 273 314 25,100  Level Miami Center
09:22AM 24.0269 -81.2967 184° South 273 314 25,100  Level Miami Center
09:24AM 23.9186 -81.2892 184° South  Level FlightAware Approximate
09:31AM 23.4304 -81.3341 185° South  Level FlightAware Approximate
09:32AM 23.3608 -81.3411 185° South  Level FlightAware Approximate
09:33AM 23.2911 -81.3482 185° South  Level FlightAware Approximate
09:34AM 23.2214 -81.3552 185° South  Level FlightAware Approximate
09:35AM 23.1517 -81.3622 185° South  Level FlightAware Approximate
09:36AM 23.0820 -81.3692 185° South  Level FlightAware Approximate
09:37AM 23.0123 -81.3762 185° South  Level FlightAware Approximate
09:38AM 22.9426 -81.3832 185° South  Level FlightAware Approximate
09:39AM 22.8729 -81.3902 185° South  Level FlightAware Approximate
09:40AM 22.8032 -81.3972 185° South  Level FlightAware Approximate
09:41AM 22.7335 -81.4042 185° South  Level FlightAware Approximate
09:42AM 22.6639 -81.4111 185° South  Level FlightAware Approximate
09:43AM 22.5942 -81.4181 185° South  Level FlightAware Approximate
09:44AM 22.5245 -81.4251 185° South  Level FlightAware Approximate
09:45AM 22.4548 -81.4320 185° South  Level FlightAware Approximate
09:46AM 22.3851 -81.4389 185° South  Level FlightAware Approximate
09:47AM 22.3154 -81.4459 185° South  Level FlightAware Approximate
09:48AM 22.2457 -81.4528 185° South  Level FlightAware Approximate
09:49AM 22.1760 -81.4597 185° South  Level FlightAware Approximate
09:50AM 22.1063 -81.4666 185° South  Level FlightAware Approximate
09:51AM 22.0366 -81.4735 185° South  Level FlightAware Approximate
09:52AM 21.9669 -81.4805 185° South  Level FlightAware Approximate
09:53AM 21.8973 -81.4873 185° South  Level FlightAware Approximate
09:54AM 21.8276 -81.4942 185° South  Level FlightAware Approximate
09:55AM 21.7579 -81.5011 185° South  Level FlightAware Approximate
09:56AM 21.6882 -81.5080 185° South  Level FlightAware Approximate
09:57AM 21.6185 -81.5148 185° South  Level FlightAware Approximate
09:58AM 21.5601 -81.4817 141° Southeast  Level FlightAware Approximate
09:59AM 21.5059 -81.4342 141° Southeast  Level FlightAware Approximate
10:00AM 21.4516 -81.3867 141° Southeast  Level FlightAware Approximate
10:01AM 21.3973 -81.3393 141° Southeast  Level FlightAware Approximate
10:02AM 21.3430 -81.2918 141° Southeast  Level FlightAware Approximate
10:03AM 21.2887 -81.2445 141° Southeast  Level FlightAware Approximate
10:04AM 21.2344 -81.1971 141° Southeast  Level FlightAware Approximate
10:05AM 21.1800 -81.1498 141° Southeast  Level FlightAware Approximate
10:06AM 21.1257 -81.1025 141° Southeast  Level FlightAware Approximate
10:07AM 21.0713 -81.0553 141° Southeast  Level FlightAware Approximate
10:08AM 21.0170 -81.0081 141° Southeast  Level FlightAware Approximate
10:09AM 20.9626 -80.9609 141° Southeast  Level FlightAware Approximate
10:10AM 20.9082 -80.9137 141° Southeast  Level FlightAware Approximate
10:11AM 20.8538 -80.8665 141° Southeast  Level FlightAware Approximate
10:12AM 20.7994 -80.8194 141° Southeast  Level FlightAware Approximate
10:13AM 20.7451 -80.7723 141° Southeast  Level FlightAware Approximate
10:14AM 20.6907 -80.7252 141° Southeast  Level FlightAware Approximate
10:15AM 20.6364 -80.6779 141° Southeast  Level FlightAware Approximate
10:16AM 20.5822 -80.6307 141° Southeast  Level FlightAware Approximate
10:17AM 20.5280 -80.5835 141° Southeast  Level FlightAware Approximate
10:18AM 20.4737 -80.5363 141° Southeast  Level FlightAware Approximate
10:19AM 20.4194 -80.4891 141° Southeast  Level FlightAware Approximate
10:20AM 20.3651 -80.4420 141° Southeast  Level FlightAware Approximate
10:21AM 20.3108 -80.3949 141° Southeast  Level FlightAware Approximate
10:22AM 20.2568 -80.3475 141° Southeast  Level FlightAware Approximate
10:23AM 20.2027 -80.3002 141° Southeast  Level FlightAware Approximate
10:24AM 20.1490 -80.2524 140° Southeast  Level FlightAware Approximate
10:25AM 20.0955 -80.2043 140° Southeast  Level FlightAware Approximate
10:26AM 20.0421 -80.1562 140° Southeast  Level FlightAware Approximate
10:27AM 19.9885 -80.1084 146° Southeast  Level FlightAware Approximate
10:28AM 19.9304 -80.0669 146° Southeast  Level FlightAware Approximate
10:29AM 19.8736 -80.0236 137° Southeast  Level FlightAware Approximate
10:30AM 19.8155 -79.9825 145° Southeast  Level FlightAware Approximate
10:31AM 19.7583 -79.9396 145° Southeast  Level FlightAware Approximate
10:32AM 19.7022 -79.8951 143° Southeast  Level FlightAware Approximate
10:33AM 19.6868 -79.8829 143° Southeast  Level Estimated
10:34AM 19.6868 -79.8829 143° Southeast  Level Estimated
10:35AM 19.6868 -79.8829 143° Southeast  Level Estimated
10:36AM 19.6868 -79.8829 143° Southeast  Level Estimated
10:37AM 19.6868 -79.8829 143° Southeast  Level Estimated
10:38AM 19.6868 -79.8829 143° Southeast  Level Estimated
10:39AM 19.6868 -79.8829 143° Southeast  Level Estimated
10:40AM 19.6868 -79.8829 143° Southeast  Level Estimated
10:41AM 19.6868 -79.8829 143° Southeast  Level Estimated
10:42AM 19.6868 -79.8829 143° Southeast  Level Estimated
10:43AM 19.6868 -79.8829 143° Southeast  Level Estimated
10:44AM 19.6868 -79.8829 143° Southeast  Level Estimated
10:45AM 19.6868 -79.8829 143° Southeast  Level Estimated
10:46AM 19.6868 -79.8829 143° Southeast  Level Estimated